ローマ/フィウミチーノ の空港の天気 - METARとTAF

ローマ・レオナルド・ダ・ビンチ国際空港 ( LIRF / FCO ) - イタリア ローマ
飛行場実況気象(Metar)
観測時間11/30 11:50 CET (11/30 10:50 UTC)
風向・風速不定 1m/s
視程10km以上
天気現象
なし
気温16℃
湿度63%
気圧1019hPa
METARLIRF 301050Z VRB02KT CAVOK 16/09 Q1019 NOSIG
過去の天気等 Google飛行場航空写真 Wunderground天気予報

過去48時間のMETAR

飛行場予報(TAF)
発表時間: 11/30 06:00 CET (11/30 05:00 UTC)
予報対象時間: 30日7時 CET ~ 1日13時 CET
風向・風速北東 4m/s
視程10km以上
全天の4割程度の雲 雲底高度 1520m
30日11時 CET ~ 30日13時 CET に徐々に
風向・風速北北西 5m/s
30日17時 CET ~ 30日19時 CET に徐々に
風向・風速東北東 4m/s
TAF LIRF 300500Z 3006/0112 04008KT 9999 SCT050
BECMG 3010/3012 34010KT
BECMG 3016/3018 06008KT